Time;durP1;ratioP1;P1;durP2;ratioP2;P2;SDS_P1;SDS_P2;PMS_P1;PMS_P2;Temp;Humidity;BMP_temperature;BMP_pressure;BME280_temperature;BME280_humidity;BME280_pressure;Samples;Min_cycle;Max_cycle;Signal;HPM_P1;HPM_P2
2022/01/12 00:00:38;;;;;;;7.87;4.13;;;;;;;-142.91;100.00;56616.03;5060845;28;20226;-66
2022/01/12 00:03:04;;;;;;;5.33;4.20;;;;;;;-142.91;100.00;56616.03;5061273;28;20298;-66
2022/01/12 00:05:31;;;;;;;5.53;4.40;;;;;;;-142.91;100.00;56616.03;5059605;28;20287;-66
2022/01/12 00:07:59;;;;;;;8.50;5.27;;;;;;;-142.91;100.00;56616.03;5060777;28;20242;-66
2022/01/12 00:10:27;;;;;;;7.67;4.60;;;;;;;-142.91;100.00;56616.03;5060459;28;20226;-66
2022/01/12 00:12:53;;;;;;;5.40;4.43;;;;;;;-142.91;100.00;56616.03;5059883;28;20226;-66
2022/01/12 00:15:20;;;;;;;4.73;4.10;;;;;;;-142.91;100.00;56616.03;5059383;28;20237;-65
2022/01/12 00:17:47;;;;;;;6.83;4.47;;;;;;;-142.91;100.00;56616.03;5060685;28;20426;-65
2022/01/12 00:20:13;;;;;;;9.37;5.27;;;;;;;-142.91;100.00;56616.03;5058982;28;20263;-64
2022/01/12 00:22:41;;;;;;;6.43;5.43;;;;;;;-142.91;100.00;56616.03;5061207;28;20334;-64
2022/01/12 00:25:26;;;;;;;5.90;5.30;;;;;;;-142.91;100.00;56616.03;5060675;28;20586;-64
2022/01/12 00:33:22;;;;;;;10.43;5.50;;;;;;;-142.91;100.00;56616.03;5061091;28;21240;-64
2022/01/12 00:35:52;;;;;;;4.63;4.17;;;;;;;-142.91;100.00;56616.03;5058941;28;20234;-64
2022/01/12 00:38:20;;;;;;;7.80;5.47;;;;;;;-142.91;100.00;56616.03;5060106;28;20258;-64
2022/01/12 00:40:50;;;;;;;5.40;4.83;;;;;;;-142.91;100.00;56616.03;5059775;28;20660;-65
2022/01/12 00:43:18;;;;;;;6.77;4.43;;;;;;;-142.91;100.00;56616.03;5060093;28;20202;-65
2022/01/12 00:45:46;;;;;;;4.87;4.33;;;;;;;-142.91;100.00;56616.03;5059060;28;20264;-66
2022/01/12 00:48:13;;;;;;;6.10;4.90;;;;;;;-142.91;100.00;56616.03;5060273;28;20207;-65
2022/01/12 00:50:40;;;;;;;5.83;4.67;;;;;;;-142.91;100.00;56616.03;5059673;28;20301;-65
2022/01/12 00:53:07;;;;;;;7.27;4.30;;;;;;;-142.91;100.00;56616.03;5060760;28;20206;-66
2022/01/12 00:55:36;;;;;;;5.87;4.80;;;;;;;-142.91;100.00;56616.03;5059807;28;20308;-65
2022/01/12 00:58:04;;;;;;;6.73;4.47;;;;;;;-142.91;100.00;56616.03;5059568;28;20234;-65
2022/01/12 01:00:32;;;;;;;7.37;4.53;;;;;;;-142.91;100.00;56616.03;5059502;28;20234;-65
2022/01/12 01:02:59;;;;;;;8.90;4.27;;;;;;;-142.91;100.00;56616.03;5060412;28;20229;-65
2022/01/12 01:05:29;;;;;;;5.27;4.50;;;;;;;-142.91;100.00;56616.03;5060628;28;20234;-65
2022/01/12 01:07:55;;;;;;;4.57;3.67;;;;;;;-142.91;100.00;56616.03;5059610;28;20311;-65
2022/01/12 01:10:30;;;;;;;4.97;4.47;;;;;;;-142.91;100.00;56616.03;5059227;28;20787;-64
2022/01/12 01:12:57;;;;;;;6.40;3.23;;;;;;;-142.91;100.00;56616.03;5060375;28;20201;-66
2022/01/12 01:15:41;;;;;;;6.37;4.30;;;;;;;-142.91;100.00;56616.03;5059140;28;20665;-65
2022/01/12 01:26:20;;;;;;;3.90;3.47;;;;;;;-142.91;100.00;56616.03;5059993;28;20205;-66
2022/01/12 01:28:47;;;;;;;4.13;3.73;;;;;;;-142.91;100.00;56616.03;5059419;28;20271;-65
2022/01/12 01:31:15;;;;;;;5.13;3.70;;;;;;;-142.91;100.00;56616.03;5059818;28;20338;-65
2022/01/12 01:33:41;;;;;;;4.23;3.77;;;;;;;-142.91;100.00;56616.03;5059271;28;20283;-66
2022/01/12 01:36:08;;;;;;;3.47;3.03;;;;;;;-142.91;100.00;56616.03;5059313;28;20260;-64
2022/01/12 01:38:35;;;;;;;3.83;3.17;;;;;;;-142.91;100.00;56616.03;5059271;28;20257;-65
2022/01/12 01:41:02;;;;;;;5.57;3.73;;;;;;;-142.91;100.00;56616.03;5059372;28;20311;-65
2022/01/12 01:43:42;;;;;;;5.20;4.70;;;;;;;-142.91;100.00;56616.03;5060538;28;20210;-66
2022/01/12 01:54:38;;;;;;;5.47;3.57;;;;;;;-142.91;100.00;56616.03;5041559;28;20708;-65
2022/01/12 01:57:05;;;;;;;5.23;4.30;;;;;;;-142.91;100.00;56616.03;5058675;28;20237;-66
2022/01/12 01:59:31;;;;;;;3.83;3.20;;;;;;;-142.91;100.00;56616.03;5060016;28;20226;-65
2022/01/12 02:01:58;;;;;;;6.47;4.07;;;;;;;-142.91;100.00;56616.03;5059138;28;20378;-66
2022/01/12 02:04:26;;;;;;;3.97;3.17;;;;;;;-142.91;100.00;56616.03;5059122;28;20748;-66
2022/01/12 02:06:54;;;;;;;6.80;4.00;;;;;;;-142.91;100.00;56616.03;5059669;28;21143;-65
2022/01/12 02:09:21;;;;;;;6.20;3.87;;;;;;;-142.91;100.00;56616.03;5058998;28;20226;-65
2022/01/12 02:11:51;;;;;;;3.70;3.40;;;;;;;-142.91;100.00;56616.03;5058706;28;20230;-66
2022/01/12 02:14:18;;;;;;;5.60;3.77;;;;;;;-142.91;100.00;56616.03;5061075;28;20299;-66
2022/01/12 02:16:57;;;;;;;4.23;3.67;;;;;;;-142.91;100.00;56616.03;5062752;28;20234;-66
2022/01/12 02:19:46;;;;;;;3.60;3.23;;;;;;;-142.91;100.00;56616.03;5063703;28;20217;-66
2022/01/12 02:36:19;;;;;;;3.43;2.57;;;;;;;-142.91;100.00;56616.03;5042941;28;20259;-65
2022/01/12 02:41:32;;;;;;;4.97;3.00;;;;;;;-142.91;100.00;56616.03;5062280;28;20291;-66
2022/01/12 02:55:01;;;;;;;4.33;3.63;;;;;;;-142.91;100.00;56616.03;5062207;28;20213;-64
2022/01/12 02:57:28;;;;;;;4.40;4.00;;;;;;;-142.91;100.00;56616.03;5062460;28;20739;-64
2022/01/12 03:00:05;;;;;;;4.13;3.73;;;;;;;-142.91;100.00;56616.03;5062287;28;20287;-65
2022/01/12 03:02:36;;;;;;;4.43;3.47;;;;;;;-142.91;100.00;56616.03;5062450;28;20335;-64
2022/01/12 03:05:23;;;;;;;4.10;3.60;;;;;;;-142.91;100.00;56616.03;5062355;28;20214;-64
2022/01/12 03:07:50;;;;;;;4.93;3.80;;;;;;;-142.91;100.00;56616.03;5061872;28;20727;-64
2022/01/12 03:10:18;;;;;;;6.70;3.93;;;;;;;-142.91;100.00;56616.03;5061763;28;20691;-65
2022/01/12 03:12:46;;;;;;;5.17;3.53;;;;;;;-142.91;100.00;56616.03;5061576;28;20207;-65
2022/01/12 03:15:13;;;;;;;4.07;2.80;;;;;;;-142.91;100.00;56616.03;5061549;28;20222;-64
2022/01/12 03:17:40;;;;;;;4.63;3.60;;;;;;;-142.91;100.00;56616.03;5061833;28;20265;-64
2022/01/12 03:20:08;;;;;;;3.70;3.40;;;;;;;-142.91;100.00;56616.03;5061796;28;20226;-64
2022/01/12 03:22:35;;;;;;;5.13;4.13;;;;;;;-142.91;100.00;56616.03;5060995;28;20230;-67
2022/01/12 03:25:02;;;;;;;7.90;4.47;;;;;;;-142.91;100.00;56616.03;5060945;28;20313;-65
2022/01/12 03:27:30;;;;;;;6.13;4.37;;;;;;;-142.91;100.00;56616.03;5060982;28;20761;-64
2022/01/12 03:29:57;;;;;;;5.93;4.67;;;;;;;-142.91;100.00;56616.03;5060591;28;20724;-65
2022/01/12 03:32:32;;;;;;;5.60;4.23;;;;;;;-142.91;100.00;56616.03;5060362;28;20299;-66
2022/01/12 03:35:08;;;;;;;4.83;3.97;;;;;;;-142.91;100.00;56616.03;5061231;28;20209;-65
2022/01/12 03:37:53;;;;;;;5.37;4.30;;;;;;;-142.91;100.00;56616.03;5060101;28;20328;-65
2022/01/12 03:40:19;;;;;;;6.13;3.97;;;;;;;-142.91;100.00;56616.03;5061468;28;20303;-66
2022/01/12 03:42:48;;;;;;;5.03;4.33;;;;;;;-142.91;100.00;56616.03;5060434;28;20371;-65
2022/01/12 03:45:15;;;;;;;8.30;4.43;;;;;;;-142.91;100.00;56616.03;5059927;28;20307;-65
2022/01/12 03:47:42;;;;;;;4.00;3.27;;;;;;;-142.91;100.00;56616.03;5060131;28;20233;-66
2022/01/12 03:50:09;;;;;;;7.67;3.63;;;;;;;-142.91;100.00;56616.03;5060860;28;20319;-66
2022/01/12 03:52:36;;;;;;;4.33;3.87;;;;;;;-142.91;100.00;56616.03;5060608;28;20319;-65
2022/01/12 03:55:02;;;;;;;4.47;3.73;;;;;;;-142.91;100.00;56616.03;5060269;28;20234;-66
2022/01/12 03:57:29;;;;;;;5.97;3.93;;;;;;;-142.91;100.00;56616.03;5060141;28;20776;-65
2022/01/12 03:59:57;;;;;;;4.03;3.73;;;;;;;-142.91;100.00;56616.03;5060145;28;20230;-65
2022/01/12 04:02:25;;;;;;;5.20;4.10;;;;;;;-142.91;100.00;56616.03;5060248;28;20311;-65
2022/01/12 04:05:09;;;;;;;6.30;3.93;;;;;;;-142.91;100.00;56616.03;5059726;28;20230;-65
2022/01/12 04:10:20;;;;;;;4.90;4.00;;;;;;;-142.91;100.00;56616.03;5059785;28;20260;-65
2022/01/12 04:12:47;;;;;;;4.03;3.47;;;;;;;-142.91;100.00;56616.03;5060088;28;21067;-65
2022/01/12 04:15:15;;;;;;;5.77;4.03;;;;;;;-142.91;100.00;56616.03;5060848;28;20255;-65
2022/01/12 04:17:42;;;;;;;4.47;4.07;;;;;;;-142.91;100.00;56616.03;5060192;28;20234;-65
2022/01/12 04:20:09;;;;;;;11.63;4.77;;;;;;;-142.91;100.00;56616.03;5060786;28;21163;-65
2022/01/12 04:25:17;;;;;;;4.90;4.27;;;;;;;-142.91;100.00;56616.03;5047976;28;20234;-64
2022/01/12 04:27:44;;;;;;;9.17;4.73;;;;;;;-142.91;100.00;56616.03;5060073;28;20206;-64
2022/01/12 04:30:11;;;;;;;7.13;5.00;;;;;;;-142.91;100.00;56616.03;5060425;28;20254;-65
2022/01/12 04:32:42;;;;;;;5.53;4.00;;;;;;;-142.91;100.00;56616.03;5060731;28;20190;-65
2022/01/12 04:35:09;;;;;;;5.07;3.37;;;;;;;-142.91;100.00;56616.03;5060596;28;20203;-64
2022/01/12 04:37:36;;;;;;;6.10;4.40;;;;;;;-142.91;100.00;56616.03;5060749;28;20210;-65
2022/01/12 04:40:04;;;;;;;6.90;4.87;;;;;;;-142.91;100.00;56616.03;5059875;28;20253;-64
2022/01/12 04:42:31;;;;;;;5.97;3.77;;;;;;;-142.91;100.00;56616.03;5059796;28;20264;-65
2022/01/12 04:45:03;;;;;;;6.80;5.17;;;;;;;-142.91;100.00;56616.03;5060131;28;20234;-65
2022/01/12 04:47:47;;;;;;;6.43;3.93;;;;;;;-142.91;100.00;56616.03;5060013;28;20234;-65
2022/01/12 04:50:15;;;;;;;6.60;4.77;;;;;;;-142.91;100.00;56616.03;5059423;28;20218;-65
2022/01/12 04:52:42;;;;;;;6.83;4.53;;;;;;;-142.91;100.00;56616.03;5059835;28;20313;-65
2022/01/12 04:55:09;;;;;;;5.10;4.37;;;;;;;-142.91;100.00;56616.03;5060639;28;20211;-65
2022/01/12 04:57:36;;;;;;;7.10;4.83;;;;;;;-142.91;100.00;56616.03;5059364;28;20283;-65
2022/01/12 05:00:13;;;;;;;9.10;4.93;;;;;;;-142.91;100.00;56616.03;5059211;28;20257;-65
2022/01/12 05:08:16;;;;;;;4.77;3.80;;;;;;;-142.91;100.00;56616.03;5060672;28;20221;-65
2022/01/12 05:13:28;;;;;;;8.60;4.70;;;;;;;-142.91;100.00;56616.03;5060907;28;20718;-66
2022/01/12 05:15:55;;;;;;;6.27;4.83;;;;;;;-142.91;100.00;56616.03;5059090;28;20887;-65
2022/01/12 05:18:24;;;;;;;4.83;4.33;;;;;;;-142.91;100.00;56616.03;5059845;28;20209;-66
2022/01/12 05:20:52;;;;;;;7.37;5.10;;;;;;;-142.91;100.00;56616.03;5059287;28;20205;-66
2022/01/12 05:23:19;;;;;;;7.77;5.43;;;;;;;-142.91;100.00;56616.03;5059516;28;20275;-65
2022/01/12 05:25:46;;;;;;;5.23;4.40;;;;;;;-142.91;100.00;56616.03;5059351;28;20242;-65
2022/01/12 05:28:13;;;;;;;4.53;4.13;;;;;;;-142.91;100.00;56616.03;5059495;28;20230;-65
2022/01/12 05:30:40;;;;;;;6.23;5.60;;;;;;;-142.91;100.00;56616.03;5059509;28;20230;-65
2022/01/12 05:33:06;;;;;;;4.30;4.00;;;;;;;-142.91;100.00;56616.03;5059572;28;20226;-65
2022/01/12 05:35:34;;;;;;;7.87;4.50;;;;;;;-142.91;100.00;56616.03;5059548;28;20259;-66
2022/01/12 05:38:04;;;;;;;9.10;5.03;;;;;;;-142.91;100.00;56616.03;5058744;28;21253;-65
2022/01/12 05:40:32;;;;;;;5.93;4.27;;;;;;;-142.91;100.00;56616.03;5060590;28;20210;-65
2022/01/12 05:43:00;;;;;;;4.73;3.80;;;;;;;-142.91;100.00;56616.03;5059189;28;20287;-65
2022/01/12 05:45:28;;;;;;;6.47;4.70;;;;;;;-142.91;100.00;56616.03;5059185;28;20206;-65
2022/01/12 05:50:41;;;;;;;5.13;3.57;;;;;;;-142.91;100.00;56616.03;5063284;28;20225;-65
2022/01/12 05:53:09;;;;;;;4.23;3.57;;;;;;;-142.91;100.00;56616.03;5063872;28;20284;-65
2022/01/12 05:55:36;;;;;;;5.37;3.43;;;;;;;-142.91;100.00;56616.03;5064337;28;20260;-65
2022/01/12 05:58:03;;;;;;;3.90;3.60;;;;;;;-142.91;100.00;56616.03;5063237;28;20234;-67
2022/01/12 06:00:30;;;;;;;4.73;4.10;;;;;;;-142.91;100.00;56616.03;5063076;28;20295;-65
2022/01/12 06:02:56;;;;;;;6.53;4.47;;;;;;;-142.91;100.00;56616.03;5062642;28;20692;-66
2022/01/12 06:05:24;;;;;;;5.80;3.80;;;;;;;-142.91;100.00;56616.03;5062616;28;21036;-66
2022/01/12 06:07:52;;;;;;;5.83;4.67;;;;;;;-142.91;100.00;56616.03;5063055;28;20238;-64
2022/01/12 06:10:22;;;;;;;5.13;4.30;;;;;;;-142.91;100.00;56616.03;5062610;28;20234;-66
2022/01/12 06:12:49;;;;;;;6.27;3.90;;;;;;;-142.91;100.00;56616.03;5063959;28;20198;-64
2022/01/12 06:15:17;;;;;;;4.27;3.63;;;;;;;-142.91;100.00;56616.03;5062639;28;20680;-65
2022/01/12 06:17:44;;;;;;;8.77;4.63;;;;;;;-142.91;100.00;56616.03;5062552;28;20711;-65
2022/01/12 06:20:11;;;;;;;4.57;4.03;;;;;;;-142.91;100.00;56616.03;5064615;28;21624;-65
2022/01/12 06:22:38;;;;;;;8.40;5.07;;;;;;;-142.91;100.00;56616.03;5062310;28;20319;-64
2022/01/12 06:25:09;;;;;;;4.27;3.80;;;;;;;-142.91;100.00;56616.03;5063073;28;20202;-64
2022/01/12 06:27:37;;;;;;;7.00;4.30;;;;;;;-142.91;100.00;56616.03;5063395;28;20202;-64
2022/01/12 06:31:10;;;;;;;5.77;5.13;;;;;;;-142.91;100.00;56616.03;5061772;28;20552;-64
2022/01/12 06:32:52;;;;;;;9.10;4.93;;;;;;;-142.91;100.00;56616.03;5062844;28;20319;-65
2022/01/12 06:35:19;;;;;;;13.27;5.67;;;;;;;-142.91;100.00;56616.03;5062263;28;20628;-65
2022/01/12 06:37:46;;;;;;;8.87;4.80;;;;;;;-142.91;100.00;56616.03;5061603;28;20311;-65
2022/01/12 06:40:14;;;;;;;11.40;4.63;;;;;;;-142.91;100.00;56616.03;5062248;28;20302;-65
2022/01/12 06:42:42;;;;;;;8.37;5.27;;;;;;;-142.91;100.00;56616.03;5062169;28;20306;-65
2022/01/12 06:45:11;;;;;;;5.47;4.57;;;;;;;-142.91;100.00;56616.03;5062280;28;20784;-65
2022/01/12 06:47:38;;;;;;;10.37;5.43;;;;;;;-142.91;100.00;56616.03;5061957;28;20963;-65
2022/01/12 06:50:06;;;;;;;11.63;4.30;;;;;;;-142.91;100.00;56616.03;5062827;28;20288;-65
2022/01/12 06:52:33;;;;;;;5.27;3.77;;;;;;;-142.91;100.00;56616.03;5062116;28;20598;-65
2022/01/12 06:55:00;;;;;;;4.77;4.30;;;;;;;-142.91;100.00;56616.03;5061952;28;20234;-65
2022/01/12 06:57:27;;;;;;;4.63;3.67;;;;;;;-142.91;100.00;56616.03;5062392;28;20202;-65
2022/01/12 06:59:55;;;;;;;9.37;4.53;;;;;;;-142.91;100.00;56616.03;5061809;28;20924;-64
2022/01/12 07:02:22;;;;;;;5.93;5.33;;;;;;;-142.91;100.00;56616.03;5062361;28;20226;-66
2022/01/12 07:04:48;;;;;;;7.00;4.87;;;;;;;-142.91;100.00;56616.03;5062876;28;20199;-65
2022/01/12 07:07:15;;;;;;;5.37;4.77;;;;;;;-142.91;100.00;56616.03;5061561;28;20238;-64
2022/01/12 07:09:42;;;;;;;5.93;4.30;;;;;;;-142.91;100.00;56616.03;5062851;28;20242;-66
2022/01/12 07:12:09;;;;;;;7.43;4.23;;;;;;;-142.91;100.00;56616.03;5061926;28;20316;-65
2022/01/12 07:14:36;;;;;;;4.27;3.47;;;;;;;-142.91;100.00;56616.03;5062239;28;20230;-65
2022/01/12 07:17:05;;;;;;;4.17;3.73;;;;;;;-142.91;100.00;56616.03;5062073;28;20198;-67
2022/01/12 07:19:32;;;;;;;3.63;2.87;;;;;;;-142.91;100.00;56616.03;5062579;28;20214;-65
2022/01/12 07:21:59;;;;;;;3.43;2.97;;;;;;;-142.91;100.00;56616.03;5061787;28;20731;-67
2022/01/12 07:24:25;;;;;;;4.30;3.87;;;;;;;-142.91;100.00;56616.03;5061742;28;21574;-64
2022/01/12 07:26:52;;;;;;;4.13;3.73;;;;;;;-142.91;100.00;56616.03;5061112;28;20699;-67
2022/01/12 07:29:19;;;;;;;7.97;4.10;;;;;;;-142.91;100.00;56616.03;5061827;28;20632;-65
2022/01/12 07:31:46;;;;;;;6.10;4.47;;;;;;;-142.91;100.00;56616.03;5061685;28;20348;-65
2022/01/12 07:34:15;;;;;;;4.13;3.70;;;;;;;-142.91;100.00;56616.03;5061704;28;20234;-65
2022/01/12 07:36:41;;;;;;;5.40;4.37;;;;;;;-142.91;100.00;56616.03;5061542;28;20202;-65
2022/01/12 07:39:08;;;;;;;5.00;4.40;;;;;;;-142.91;100.00;56616.03;5061069;28;20975;-65
2022/01/12 07:41:38;;;;;;;4.57;3.60;;;;;;;-142.91;100.00;56616.03;5061163;28;20677;-66
2022/01/12 07:44:05;;;;;;;4.60;4.20;;;;;;;-142.91;100.00;56616.03;5060677;28;20206;-66
2022/01/12 07:46:32;;;;;;;3.90;3.43;;;;;;;-142.91;100.00;56616.03;5060955;28;20198;-66
2022/01/12 07:48:59;;;;;;;5.77;4.20;;;;;;;-142.91;100.00;56616.03;5061387;28;20238;-65
2022/01/12 07:51:27;;;;;;;4.10;2.97;;;;;;;-142.91;100.00;56616.03;5061499;28;20269;-65
2022/01/12 07:53:53;;;;;;;4.30;3.20;;;;;;;-142.91;100.00;56616.03;5061470;28;20234;-65
2022/01/12 07:56:20;;;;;;;3.17;2.87;;;;;;;-142.91;100.00;56616.03;5061329;28;20746;-65
2022/01/12 07:58:47;;;;;;;2.97;2.67;;;;;;;-142.91;100.00;56616.03;5061323;28;20275;-65
2022/01/12 08:01:13;;;;;;;4.07;3.67;;;;;;;-142.91;100.00;56616.03;5061179;28;20233;-66
2022/01/12 08:03:40;;;;;;;4.90;3.17;;;;;;;-142.91;100.00;56616.03;5060890;28;20229;-65
2022/01/12 08:06:07;;;;;;;3.77;3.30;;;;;;;-142.91;100.00;56616.03;5061548;28;20259;-63
2022/01/12 08:08:35;;;;;;;4.53;3.00;;;;;;;-142.91;100.00;56616.03;5061114;28;20238;-65
2022/01/12 08:11:02;;;;;;;5.80;3.43;;;;;;;-142.91;100.00;56616.03;5059969;28;20195;-66
2022/01/12 08:13:28;;;;;;;4.60;4.10;;;;;;;-142.91;100.00;56616.03;5061161;28;20291;-65
2022/01/12 08:15:55;;;;;;;3.87;3.47;;;;;;;-142.91;100.00;56616.03;5060862;28;20210;-66
2022/01/12 08:18:22;;;;;;;3.13;2.77;;;;;;;-142.91;100.00;56616.03;5060155;28;20255;-65
2022/01/12 08:20:49;;;;;;;6.23;3.73;;;;;;;-142.91;100.00;56616.03;5060573;28;20654;-65
2022/01/12 08:23:15;;;;;;;3.17;2.93;;;;;;;-142.91;100.00;56616.03;5060943;28;20234;-65
2022/01/12 08:25:43;;;;;;;4.27;3.87;;;;;;;-142.91;100.00;56616.03;5060049;28;20762;-65
2022/01/12 08:28:10;;;;;;;3.57;2.77;;;;;;;-142.91;100.00;56616.03;5060032;28;20256;-66
2022/01/12 08:30:39;;;;;;;3.20;2.90;;;;;;;-142.91;100.00;56616.03;5060449;28;20242;-65
2022/01/12 08:33:07;;;;;;;3.43;3.13;;;;;;;-142.91;100.00;56616.03;5060497;28;20226;-64
2022/01/12 08:35:34;;;;;;;3.50;3.20;;;;;;;-142.91;100.00;56616.03;5060271;28;20242;-65
2022/01/12 08:38:01;;;;;;;5.20;3.17;;;;;;;-142.91;100.00;56616.03;5061366;28;20248;-66
2022/01/12 08:40:28;;;;;;;3.30;2.73;;;;;;;-142.91;100.00;56616.03;5060698;28;20209;-66
2022/01/12 08:42:56;;;;;;;6.63;3.00;;;;;;;-142.91;100.00;56616.03;5059975;28;20849;-65
2022/01/12 08:45:23;;;;;;;3.43;3.10;;;;;;;-142.91;100.00;56616.03;5059618;28;20248;-67
2022/01/12 08:47:50;;;;;;;3.58;2.55;;;;;;;-142.91;100.00;56616.03;5061471;28;20221;-66
2022/01/12 08:50:18;;;;;;;3.23;2.17;;;;;;;-142.91;100.00;56616.03;5060153;28;20288;-67
2022/01/12 08:52:46;;;;;;;3.93;2.67;;;;;;;-142.91;100.00;56616.03;5059887;28;20798;-65
2022/01/12 08:55:13;;;;;;;3.13;2.90;;;;;;;-142.91;100.00;56616.03;5059905;28;20680;-65
2022/01/12 08:57:39;;;;;;;4.88;3.05;;;;;;;-142.91;100.00;56616.03;5060136;28;20225;-65
2022/01/12 09:00:10;;;;;;;2.63;2.00;;;;;;;-142.91;100.00;56616.03;5059588;28;20256;-66
2022/01/12 09:02:38;;;;;;;45.50;16.63;;;;;;;-142.91;100.00;56616.03;5056890;28;20264;-72
2022/01/12 09:05:05;;;;;;;4.03;3.23;;;;;;;-142.91;100.00;56616.03;5058749;28;20751;-65
2022/01/12 09:07:33;;;;;;;3.43;3.13;;;;;;;-142.91;100.00;56616.03;5060494;28;20229;-65
2022/01/12 09:09:59;;;;;;;3.30;3.00;;;;;;;-142.91;100.00;56616.03;5060693;28;20292;-64
2022/01/12 09:12:27;;;;;;;4.90;3.63;;;;;;;-142.91;100.00;56616.03;5058984;28;20262;-66
2022/01/12 09:14:54;;;;;;;3.67;3.23;;;;;;;-142.91;100.00;56616.03;5059244;28;20313;-66
2022/01/12 09:17:23;;;;;;;3.87;3.47;;;;;;;-142.91;100.00;56616.03;5057428;28;20238;-65
2022/01/12 09:19:50;;;;;;;2.83;2.70;;;;;;;-142.91;100.00;56616.03;5058206;28;20202;-64
2022/01/12 09:22:17;;;;;;;4.95;2.88;;;;;;;-142.91;100.00;56616.03;5056962;28;20306;-65
2022/01/12 09:24:46;;;;;;;3.10;2.30;;;;;;;-142.91;100.00;56616.03;5058420;28;20307;-66
2022/01/12 09:27:13;;;;;;;2.77;2.57;;;;;;;-142.91;100.00;56616.03;5059007;28;20242;-66
2022/01/12 09:29:41;;;;;;;4.60;2.70;;;;;;;-142.91;100.00;56616.03;5059592;28;20696;-64
2022/01/12 09:32:09;;;;;;;2.10;2.00;;;;;;;-142.91;100.00;56616.03;5059370;28;20254;-66
2022/01/12 09:34:37;;;;;;;2.80;2.60;;;;;;;-142.91;100.00;56616.03;5059680;28;20665;-66
2022/01/12 09:37:05;;;;;;;2.97;2.77;;;;;;;-142.91;100.00;56616.03;5059158;28;20230;-66
2022/01/12 09:39:31;;;;;;;4.77;2.83;;;;;;;-142.91;100.00;56616.03;5059333;28;20275;-66
2022/01/12 09:41:59;;;;;;;3.40;2.67;;;;;;;-142.91;100.00;56616.03;5060698;28;20233;-66
2022/01/12 09:44:30;;;;;;;3.70;2.97;;;;;;;-142.91;100.00;56616.03;5059085;28;20685;-65
2022/01/12 09:46:57;;;;;;;2.63;2.30;;;;;;;-142.91;100.00;56616.03;5058624;28;20198;-65
2022/01/12 09:49:24;;;;;;;4.57;2.30;;;;;;;-142.91;100.00;56616.03;5059259;28;20203;-65
2022/01/12 09:51:52;;;;;;;2.13;2.03;;;;;;;-142.91;100.00;56616.03;5058953;28;20344;-65
2022/01/12 09:54:19;;;;;;;2.77;2.57;;;;;;;-142.91;100.00;56616.03;5058767;28;20624;-65
2022/01/12 09:56:46;;;;;;;2.70;2.47;;;;;;;-142.91;100.00;56616.03;5059018;28;20292;-66
2022/01/12 09:59:13;;;;;;;5.30;2.07;;;;;;;-142.91;100.00;56616.03;5059662;28;20202;-66
2022/01/12 10:01:43;;;;;;;2.97;2.23;;;;;;;-142.91;100.00;56616.03;5058985;28;21084;-67
2022/01/12 10:04:12;;;;;;;5.17;2.90;;;;;;;-142.91;100.00;56616.03;5058692;28;20295;-64
2022/01/12 10:06:40;;;;;;;2.23;2.03;;;;;;;-142.91;100.00;56616.03;5058717;28;20577;-65
2022/01/12 10:09:09;;;;;;;5.07;3.43;;;;;;;-142.91;100.00;56616.03;5058945;28;20284;-65
2022/01/12 10:11:39;;;;;;;3.27;2.20;;;;;;;-142.91;100.00;56616.03;5060034;28;20673;-65
2022/01/12 10:14:07;;;;;;;3.17;2.57;;;;;;;-142.91;100.00;56616.03;5058870;28;20669;-65
2022/01/12 10:16:33;;;;;;;3.43;3.13;;;;;;;-142.91;100.00;56616.03;5059240;28;20291;-65
2022/01/12 10:19:01;;;;;;;3.30;2.40;;;;;;;-142.91;100.00;56616.03;5058961;28;20814;-66
2022/01/12 10:21:34;;;;;;;3.40;3.00;;;;;;;-142.91;100.00;56616.03;5059047;28;20359;-66
2022/01/12 10:24:04;;;;;;;4.73;3.20;;;;;;;-142.91;100.00;56616.03;5058912;28;20226;-66
2022/01/12 10:26:36;;;;;;;3.47;3.27;;;;;;;-142.91;100.00;56616.03;5058540;28;20344;-66
2022/01/12 10:29:08;;;;;;;2.50;2.30;;;;;;;-142.91;100.00;56616.03;5058991;28;20198;-66
2022/01/12 10:31:51;;;;;;;3.23;3.00;;;;;;;-142.91;100.00;56616.03;5058761;28;20234;-65
2022/01/12 10:34:19;;;;;;;3.37;2.77;;;;;;;-142.91;100.00;56616.03;5059726;28;20248;-64
2022/01/12 10:36:47;;;;;;;2.47;2.37;;;;;;;-142.91;100.00;56616.03;5062069;28;20237;-64
2022/01/12 10:39:16;;;;;;;2.37;2.17;;;;;;;-142.91;100.00;56616.03;5061663;28;20253;-65
2022/01/12 10:42:03;;;;;;;3.10;2.80;;;;;;;-142.91;100.00;56616.03;5061947;28;20219;-64
2022/01/12 10:44:32;;;;;;;8.07;2.50;;;;;;;-142.91;100.00;56616.03;5063155;28;20191;-65
2022/01/12 10:47:11;;;;;;;1.37;1.27;;;;;;;-142.91;100.00;56616.03;5061243;28;20707;-66
2022/01/12 10:49:40;;;;;;;3.00;2.67;;;;;;;-142.91;100.00;56616.03;5065576;28;20190;-66
2022/01/12 10:52:13;;;;;;;2.97;2.60;;;;;;;-142.91;100.00;56616.03;5056779;28;20859;-65
2022/01/12 10:54:47;;;;;;;4.20;2.77;;;;;;;-142.91;100.00;56616.03;5061829;28;20291;-65
2022/01/12 10:57:19;;;;;;;5.47;2.63;;;;;;;-142.91;100.00;56616.03;5068383;28;20190;-65
2022/01/12 10:59:48;;;;;;;5.57;3.30;;;;;;;-142.91;100.00;56616.03;5068151;28;20248;-66
2022/01/12 11:02:15;;;;;;;2.87;2.67;;;;;;;-142.91;100.00;56616.03;5068603;28;20311;-64
2022/01/12 11:04:42;;;;;;;4.60;3.33;;;;;;;-142.91;100.00;56616.03;5069017;28;20195;-65
2022/01/12 11:07:10;;;;;;;3.57;3.10;;;;;;;-142.91;100.00;56616.03;5070429;28;20225;-65
2022/01/12 11:09:37;;;;;;;2.60;2.40;;;;;;;-142.91;100.00;56616.03;5070963;28;20209;-65
2022/01/12 11:12:05;;;;;;;3.97;2.87;;;;;;;-142.91;100.00;56616.03;5070792;28;20196;-65
2022/01/12 11:14:34;;;;;;;4.53;3.07;;;;;;;-142.91;100.00;56616.03;5070051;28;20194;-65
2022/01/12 11:17:01;;;;;;;3.90;2.93;;;;;;;-142.91;100.00;56616.03;5070758;28;20252;-66
2022/01/12 11:19:29;;;;;;;2.70;2.50;;;;;;;-142.91;100.00;56616.03;5070751;28;20277;-65
2022/01/12 11:22:07;;;;;;;1.70;1.60;;;;;;;-142.91;100.00;56616.03;5072127;28;20295;-65
2022/01/12 11:24:34;;;;;;;2.60;2.40;;;;;;;-142.91;100.00;56616.03;5072209;28;20217;-65
2022/01/12 11:27:03;;;;;;;3.17;2.83;;;;;;;-142.91;100.00;56616.03;5071972;28;20612;-64
2022/01/12 11:29:34;;;;;;;4.17;3.00;;;;;;;-142.91;100.00;56616.03;5072393;28;20629;-63
2022/01/12 11:32:06;;;;;;;2.80;2.60;;;;;;;-142.91;100.00;56616.03;5072083;28;20195;-64
2022/01/12 11:34:33;;;;;;;4.23;2.67;;;;;;;-142.91;100.00;56616.03;5071723;28;20240;-64
2022/01/12 11:36:59;;;;;;;4.00;2.87;;;;;;;-142.91;100.00;56616.03;5072003;28;20657;-64
2022/01/12 11:39:32;;;;;;;2.87;2.67;;;;;;;-142.91;100.00;56616.03;5072229;28;20264;-64
2022/01/12 11:41:59;;;;;;;5.17;3.43;;;;;;;-142.91;100.00;56616.03;5072292;28;20298;-66
2022/01/12 11:44:28;;;;;;;3.50;3.20;;;;;;;-142.91;100.00;56616.03;5072071;28;20289;-64
2022/01/12 11:46:59;;;;;;;2.90;2.60;;;;;;;-142.91;100.00;56616.03;5070679;28;20208;-65
2022/01/12 11:49:28;;;;;;;2.90;2.30;;;;;;;-142.91;100.00;56616.03;5071931;28;20235;-65
2022/01/12 11:51:55;;;;;;;3.60;2.63;;;;;;;-142.91;100.00;56616.03;5072076;28;20260;-64
2022/01/12 11:54:24;;;;;;;2.87;2.57;;;;;;;-142.91;100.00;56616.03;5071666;28;20275;-65
2022/01/12 11:56:55;;;;;;;3.47;3.00;;;;;;;-142.91;100.00;56616.03;5071831;28;20252;-64
2022/01/12 11:59:23;;;;;;;3.10;2.90;;;;;;;-142.91;100.00;56616.03;5071639;28;20237;-66
2022/01/12 12:02:09;;;;;;;2.63;2.43;;;;;;;-142.91;100.00;56616.03;5071987;28;20746;-64
2022/01/12 12:04:36;;;;;;;2.83;2.60;;;;;;;-142.91;100.00;56616.03;5071620;28;20199;-64
2022/01/12 12:07:09;;;;;;;3.40;3.10;;;;;;;-142.91;100.00;56616.03;5071493;28;20202;-64
2022/01/12 12:09:38;;;;;;;3.50;3.07;;;;;;;-142.91;100.00;56616.03;5071283;28;20620;-64
2022/01/12 12:12:12;;;;;;;2.50;2.20;;;;;;;-142.91;100.00;56616.03;5071632;28;20247;-63
2022/01/12 12:14:38;;;;;;;2.67;2.33;;;;;;;-142.91;100.00;56616.03;5071821;28;20255;-63
2022/01/12 12:17:08;;;;;;;4.57;3.00;;;;;;;-142.91;100.00;56616.03;5071752;28;20259;-63
2022/01/12 12:19:37;;;;;;;3.00;2.80;;;;;;;-142.91;100.00;56616.03;5071535;28;20767;-64
2022/01/12 12:22:15;;;;;;;2.90;2.70;;;;;;;-142.91;100.00;56616.03;5071318;28;20325;-64